sensor_id;sensor_type;location;lat;lon;timestamp;pressure;altitude;pressure_sealevel;temperature;humidity
71764;BME280;59602;52.142;5.408;2023-02-19T00:00:06;101873.84;;;9.85;100.00
71764;BME280;59602;52.142;5.408;2023-02-19T00:02:34;101880.06;;;9.86;100.00
71764;BME280;59602;52.142;5.408;2023-02-19T00:05:00;101873.84;;;9.85;100.00
71764;BME280;59602;52.142;5.408;2023-02-19T00:07:27;101871.47;;;9.84;100.00
71764;BME280;59602;52.142;5.408;2023-02-19T00:09:53;101874.19;;;9.84;100.00
71764;BME280;59602;52.142;5.408;2023-02-19T00:12:20;101874.97;;;9.84;100.00
71764;BME280;59602;52.142;5.408;2023-02-19T00:14:47;101880.84;;;9.86;100.00
71764;BME280;59602;52.142;5.408;2023-02-19T00:17:13;101873.06;;;9.85;100.00
71764;BME280;59602;52.142;5.408;2023-02-19T00:19:40;101880.38;;;9.84;100.00
71764;BME280;59602;52.142;5.408;2023-02-19T00:22:06;101885.47;;;9.86;100.00
71764;BME280;59602;52.142;5.408;2023-02-19T00:24:33;101878.47;;;9.85;100.00
71764;BME280;59602;52.142;5.408;2023-02-19T00:26:59;101885.03;;;9.84;100.00
71764;BME280;59602;52.142;5.408;2023-02-19T00:29:26;101884.59;;;9.82;100.00
71764;BME280;59602;52.142;5.408;2023-02-19T00:31:52;101887.69;;;9.80;100.00
71764;BME280;59602;52.142;5.408;2023-02-19T00:34:19;101896.25;;;9.82;100.00
71764;BME280;59602;52.142;5.408;2023-02-19T00:36:46;101891.63;;;9.83;100.00
71764;BME280;59602;52.142;5.408;2023-02-19T00:39:14;101878.81;;;9.83;100.00
71764;BME280;59602;52.142;5.408;2023-02-19T00:41:42;101890.81;;;9.82;100.00
71764;BME280;59602;52.142;5.408;2023-02-19T00:44:09;101887.69;;;9.80;100.00
71764;BME280;59602;52.142;5.408;2023-02-19T00:46:39;101897.84;;;9.83;100.00
71764;BME280;59602;52.142;5.408;2023-02-19T00:49:07;101894.34;;;9.83;100.00
71764;BME280;59602;52.142;5.408;2023-02-19T00:51:36;101897.84;;;9.83;100.00
71764;BME280;59602;52.142;5.408;2023-02-19T00:54:05;101892.41;;;9.83;100.00
71764;BME280;59602;52.142;5.408;2023-02-19T00:56:32;101880.75;;;9.83;100.00
71764;BME280;59602;52.142;5.408;2023-02-19T00:58:58;101890.81;;;9.82;99.99
71764;BME280;59602;52.142;5.408;2023-02-19T01:01:25;101886.53;;;9.81;100.00
71764;BME280;59602;52.142;5.408;2023-02-19T01:03:52;101894.69;;;9.81;100.00
71764;BME280;59602;52.142;5.408;2023-02-19T01:06:19;101905.53;;;9.81;99.88
71764;BME280;59602;52.142;5.408;2023-02-19T01:08:47;101897.41;;;9.81;100.00
71764;BME280;59602;52.142;5.408;2023-02-19T01:11:16;101904.75;;;9.81;99.98
71764;BME280;59602;52.142;5.408;2023-02-19T01:13:43;101908.69;;;9.83;100.00
71764;BME280;59602;52.142;5.408;2023-02-19T01:16:15;101915.63;;;9.81;100.00
71764;BME280;59602;52.142;5.408;2023-02-19T01:18:42;101919.00;;;9.77;99.81
71764;BME280;59602;52.142;5.408;2023-02-19T01:21:14;101908.59;;;9.80;99.74
71764;BME280;59602;52.142;5.408;2023-02-19T01:23:42;101923.31;;;9.79;99.74
71764;BME280;59602;52.142;5.408;2023-02-19T01:26:13;101919.00;;;9.77;99.96
71764;BME280;59602;52.142;5.408;2023-02-19T01:28:40;101920.94;;;9.77;99.73
71764;BME280;59602;52.142;5.408;2023-02-19T01:31:11;101917.44;;;9.76;100.00
71764;BME280;59602;52.142;5.408;2023-02-19T01:33:38;101924.81;;;9.76;99.66
71764;BME280;59602;52.142;5.408;2023-02-19T01:36:06;101920.88;;;9.73;99.49
71764;BME280;59602;52.142;5.408;2023-02-19T01:38:32;101920.88;;;9.73;99.68
71764;BME280;59602;52.142;5.408;2023-02-19T01:41:01;101920.41;;;9.71;99.63
71764;BME280;59602;52.142;5.408;2023-02-19T01:43:31;101915.78;;;9.72;99.29
71764;BME280;59602;52.142;5.408;2023-02-19T01:45:57;101923.47;;;9.70;99.30
71764;BME280;59602;52.142;5.408;2023-02-19T01:48:29;101925.75;;;9.68;99.55
71764;BME280;59602;52.142;5.408;2023-02-19T01:51:05;101920.66;;;9.66;99.31
71764;BME280;59602;52.142;5.408;2023-02-19T01:53:40;101926.78;;;9.63;99.52
71764;BME280;59602;52.142;5.408;2023-02-19T01:56:08;101929.84;;;9.62;99.27
71764;BME280;59602;52.142;5.408;2023-02-19T01:58:36;101927.13;;;9.62;99.34
71764;BME280;59602;52.142;5.408;2023-02-19T02:01:05;101919.75;;;9.62;99.72
71764;BME280;59602;52.142;5.408;2023-02-19T02:03:36;101918.19;;;9.61;99.45
71764;BME280;59602;52.142;5.408;2023-02-19T02:06:08;101919.69;;;9.59;99.41
71764;BME280;59602;52.142;5.408;2023-02-19T02:08:37;101918.91;;;9.58;99.51
71764;BME280;59602;52.142;5.408;2023-02-19T02:11:23;101933.59;;;9.57;99.67
71764;BME280;59602;52.142;5.408;2023-02-19T02:13:50;101928.16;;;9.57;99.61
71764;BME280;59602;52.142;5.408;2023-02-19T02:16:23;101928.16;;;9.57;99.30
71764;BME280;59602;52.142;5.408;2023-02-19T02:18:58;101933.16;;;9.55;99.38
71764;BME280;59602;52.142;5.408;2023-02-19T02:21:45;101936.22;;;9.53;99.29
71764;BME280;59602;52.142;5.408;2023-02-19T02:26:56;101933.50;;;9.53;99.36
71764;BME280;59602;52.142;5.408;2023-02-19T02:29:46;101937.34;;;9.52;99.24
71764;BME280;59602;52.142;5.408;2023-02-19T02:32:19;101938.03;;;9.49;99.33
71764;BME280;59602;52.142;5.408;2023-02-19T02:34:52;101932.63;;;9.49;98.90
71764;BME280;59602;52.142;5.408;2023-02-19T02:37:24;101934.19;;;9.50;99.08
71764;BME280;59602;52.142;5.408;2023-02-19T02:39:54;101935.31;;;9.49;99.04
71764;BME280;59602;52.142;5.408;2023-02-19T02:42:23;101944.59;;;9.48;99.09
71764;BME280;59602;52.142;5.408;2023-02-19T02:44:57;101948.44;;;9.47;99.25
71764;BME280;59602;52.142;5.408;2023-02-19T02:47:49;101939.53;;;9.47;99.05
71764;BME280;59602;52.142;5.408;2023-02-19T02:50:24;101944.94;;;9.47;99.23
71764;BME280;59602;52.142;5.408;2023-02-19T02:52:58;101941.78;;;9.45;99.32
71764;BME280;59602;52.142;5.408;2023-02-19T02:55:48;101948.00;;;9.45;99.04
71764;BME280;59602;52.142;5.408;2023-02-19T02:58:18;101947.56;;;9.43;99.03
71764;BME280;59602;52.142;5.408;2023-02-19T03:00:51;101945.63;;;9.44;98.96
71764;BME280;59602;52.142;5.408;2023-02-19T03:03:40;101953.44;;;9.45;98.87
71764;BME280;59602;52.142;5.408;2023-02-19T03:06:11;101953.09;;;9.47;99.09
71764;BME280;59602;52.142;5.408;2023-02-19T03:08:53;101957.25;;;9.44;99.00
71764;BME280;59602;52.142;5.408;2023-02-19T03:11:22;101954.56;;;9.44;98.85
71764;BME280;59602;52.142;5.408;2023-02-19T03:14:15;101958.09;;;9.45;98.94
71764;BME280;59602;52.142;5.408;2023-02-19T03:17:09;101965.78;;;9.43;99.13
71764;BME280;59602;52.142;5.408;2023-02-19T03:19:57;101960.78;;;9.45;98.94
71764;BME280;59602;52.142;5.408;2023-02-19T03:22:29;101968.13;;;9.44;99.16
71764;BME280;59602;52.142;5.408;2023-02-19T03:25:00;101960.69;;;9.41;98.87
71764;BME280;59602;52.142;5.408;2023-02-19T03:27:48;101971.19;;;9.43;98.90
71764;BME280;59602;52.142;5.408;2023-02-19T03:30:19;101968.50;;;9.43;99.03
71764;BME280;59602;52.142;5.408;2023-02-19T03:32:53;101967.69;;;9.42;99.12
71764;BME280;59602;52.142;5.408;2023-02-19T03:35:24;101975.41;;;9.40;99.01
71764;BME280;59602;52.142;5.408;2023-02-19T03:38:01;101983.53;;;9.40;99.13
71764;BME280;59602;52.142;5.408;2023-02-19T03:40:30;101974.25;;;9.41;99.15
71764;BME280;59602;52.142;5.408;2023-02-19T03:43:20;101977.75;;;9.42;99.00
71764;BME280;59602;52.142;5.408;2023-02-19T03:48:32;101979.34;;;9.43;98.67
71764;BME280;59602;52.142;5.408;2023-02-19T03:56:18;101992.47;;;9.41;98.40
71764;BME280;59602;52.142;5.408;2023-02-19T04:01:38;102000.50;;;9.37;98.39
71764;BME280;59602;52.142;5.408;2023-02-19T04:04:25;102007.06;;;9.36;98.26
71764;BME280;59602;52.142;5.408;2023-02-19T04:06:55;102004.00;;;9.38;98.66
71764;BME280;59602;52.142;5.408;2023-02-19T04:09:25;102007.06;;;9.36;98.59
71764;BME280;59602;52.142;5.408;2023-02-19T04:11:54;102013.97;;;9.33;98.43
71764;BME280;59602;52.142;5.408;2023-02-19T04:14:26;102014.75;;;9.34;98.54
71764;BME280;59602;52.142;5.408;2023-02-19T04:17:02;102022.13;;;9.33;98.56
71764;BME280;59602;52.142;5.408;2023-02-19T04:19:34;102029.44;;;9.33;98.54
71764;BME280;59602;52.142;5.408;2023-02-19T04:22:05;102037.94;;;9.31;98.58
71764;BME280;59602;52.142;5.408;2023-02-19T04:24:38;102039.84;;;9.31;98.76
71764;BME280;59602;52.142;5.408;2023-02-19T04:27:07;102035.56;;;9.30;98.75
71764;BME280;59602;52.142;5.408;2023-02-19T04:29:35;102036.03;;;9.32;98.57
71764;BME280;59602;52.142;5.408;2023-02-19T04:32:04;102040.66;;;9.31;98.66
71764;BME280;59602;52.142;5.408;2023-02-19T04:34:31;102044.94;;;9.32;98.54
71764;BME280;59602;52.142;5.408;2023-02-19T04:36:58;102038.72;;;9.32;98.60
71764;BME280;59602;52.142;5.408;2023-02-19T04:39:24;102050.38;;;9.32;98.74
71764;BME280;59602;52.142;5.408;2023-02-19T04:41:51;102052.63;;;9.30;98.87
71764;BME280;59602;52.142;5.408;2023-02-19T04:44:17;102062.38;;;9.31;98.31
71764;BME280;59602;52.142;5.408;2023-02-19T04:46:44;102063.16;;;9.32;98.66
71764;BME280;59602;52.142;5.408;2023-02-19T04:49:10;102075.94;;;9.31;98.51
71764;BME280;59602;52.142;5.408;2023-02-19T04:51:37;102074.81;;;9.32;98.47
71764;BME280;59602;52.142;5.408;2023-02-19T04:54:04;102081.00;;;9.33;98.55
71764;BME280;59602;52.142;5.408;2023-02-19T04:56:31;102086.81;;;9.31;98.12
71764;BME280;59602;52.142;5.408;2023-02-19T04:58:58;102087.91;;;9.30;98.33
71764;BME280;59602;52.142;5.408;2023-02-19T05:01:25;102098.78;;;9.30;98.23
71764;BME280;59602;52.142;5.408;2023-02-19T05:03:52;102091.78;;;9.29;98.53
71764;BME280;59602;52.142;5.408;2023-02-19T05:06:18;102092.56;;;9.30;98.44
71764;BME280;59602;52.142;5.408;2023-02-19T05:08:45;102096.84;;;9.31;98.06
71764;BME280;59602;52.142;5.408;2023-02-19T05:11:11;102102.28;;;9.31;98.04
71764;BME280;59602;52.142;5.408;2023-02-19T05:13:39;102099.56;;;9.31;98.03
71764;BME280;59602;52.142;5.408;2023-02-19T05:16:09;102097.22;;;9.29;97.80
71764;BME280;59602;52.142;5.408;2023-02-19T05:18:36;102111.56;;;9.30;97.90
71764;BME280;59602;52.142;5.408;2023-02-19T05:21:02;102106.81;;;9.27;97.77
71764;BME280;59602;52.142;5.408;2023-02-19T05:23:29;102117.31;;;9.28;97.98
71764;BME280;59602;52.142;5.408;2023-02-19T05:25:56;102110.31;;;9.27;98.00
71764;BME280;59602;52.142;5.408;2023-02-19T05:28:22;102111.78;;;9.25;98.32
71764;BME280;59602;52.142;5.408;2023-02-19T05:30:55;102111.78;;;9.25;98.06
71764;BME280;59602;52.142;5.408;2023-02-19T05:33:24;102118.78;;;9.26;98.06
71764;BME280;59602;52.142;5.408;2023-02-19T05:35:52;102121.19;;;9.27;98.18
71764;BME280;59602;52.142;5.408;2023-02-19T05:38:20;102126.16;;;9.25;98.26
71764;BME280;59602;52.142;5.408;2023-02-19T05:40:47;102117.22;;;9.25;98.12
71764;BME280;59602;52.142;5.408;2023-02-19T05:43:14;102119.94;;;9.25;98.12
71764;BME280;59602;52.142;5.408;2023-02-19T05:45:41;102121.06;;;9.24;98.40
71764;BME280;59602;52.142;5.408;2023-02-19T05:48:09;102119.16;;;9.24;98.41
71764;BME280;59602;52.142;5.408;2023-02-19T05:50:36;102123.75;;;9.24;98.44
71764;BME280;59602;52.142;5.408;2023-02-19T05:53:05;102119.47;;;9.23;97.92
71764;BME280;59602;52.142;5.408;2023-02-19T05:55:34;102122.19;;;9.23;98.45
71764;BME280;59602;52.142;5.408;2023-02-19T05:58:01;102126.84;;;9.22;97.85
71764;BME280;59602;52.142;5.408;2023-02-19T06:00:28;102135.75;;;9.23;97.93
71764;BME280;59602;52.142;5.408;2023-02-19T06:02:55;102140.03;;;9.24;97.83
71764;BME280;59602;52.142;5.408;2023-02-19T06:05:21;102135.31;;;9.21;97.53
71764;BME280;59602;52.142;5.408;2023-02-19T06:07:48;102141.84;;;9.20;97.39
71764;BME280;59602;52.142;5.408;2023-02-19T06:10:16;102141.06;;;9.19;97.26
71764;BME280;59602;52.142;5.408;2023-02-19T06:12:43;102137.56;;;9.19;97.12
71764;BME280;59602;52.142;5.408;2023-02-19T06:15:10;102143.00;;;9.19;97.17
71764;BME280;59602;52.142;5.408;2023-02-19T06:17:36;102153.06;;;9.18;97.35
71764;BME280;59602;52.142;5.408;2023-02-19T06:20:03;102156.56;;;9.19;97.21
71764;BME280;59602;52.142;5.408;2023-02-19T06:22:29;102170.44;;;9.17;97.48
71764;BME280;59602;52.142;5.408;2023-02-19T06:24:56;102172.38;;;9.17;97.16
71764;BME280;59602;52.142;5.408;2023-02-19T06:27:23;102178.94;;;9.16;97.46
71764;BME280;59602;52.142;5.408;2023-02-19T06:29:50;102179.97;;;9.11;97.39
71764;BME280;59602;52.142;5.408;2023-02-19T06:32:17;102184.56;;;9.10;97.48
71764;BME280;59602;52.142;5.408;2023-02-19T06:34:45;102188.44;;;9.09;97.70
71764;BME280;59602;52.142;5.408;2023-02-19T06:37:11;102179.16;;;9.10;97.87
71764;BME280;59602;52.142;5.408;2023-02-19T06:39:38;102185.72;;;9.09;97.55
71764;BME280;59602;52.142;5.408;2023-02-19T06:42:05;102190.00;;;9.10;98.09
71764;BME280;59602;52.142;5.408;2023-02-19T06:44:32;102194.19;;;9.08;97.87
71764;BME280;59602;52.142;5.408;2023-02-19T06:46:58;102195.78;;;9.09;98.00
71764;BME280;59602;52.142;5.408;2023-02-19T06:49:25;102201.53;;;9.07;98.25
71764;BME280;59602;52.142;5.408;2023-02-19T06:51:51;102203.47;;;9.07;98.08
71764;BME280;59602;52.142;5.408;2023-02-19T06:54:18;102206.81;;;9.04;98.34
71764;BME280;59602;52.142;5.408;2023-02-19T06:56:44;102208.28;;;9.01;98.24
71764;BME280;59602;52.142;5.408;2023-02-19T06:59:14;102209.44;;;9.00;98.24
71764;BME280;59602;52.142;5.408;2023-02-19T07:01:44;102211.00;;;9.01;98.45
71764;BME280;59602;52.142;5.408;2023-02-19T07:04:11;102212.25;;;9.04;98.68
71764;BME280;59602;52.142;5.408;2023-02-19T07:06:38;102219.94;;;9.02;98.24
71764;BME280;59602;52.142;5.408;2023-02-19T07:09:06;102224.25;;;9.03;98.38
71764;BME280;59602;52.142;5.408;2023-02-19T07:11:34;102238.91;;;9.02;98.20
71764;BME280;59602;52.142;5.408;2023-02-19T07:14:04;102235.75;;;9.00;98.24
71764;BME280;59602;52.142;5.408;2023-02-19T07:16:33;102239.28;;;9.00;98.22
71764;BME280;59602;52.142;5.408;2023-02-19T07:19:00;102252.84;;;9.00;98.46
71764;BME280;59602;52.142;5.408;2023-02-19T07:21:28;102250.59;;;9.02;98.30
71764;BME280;59602;52.142;5.408;2023-02-19T07:23:55;102260.97;;;9.00;98.15
71764;BME280;59602;52.142;5.408;2023-02-19T07:26:22;102263.22;;;8.98;98.25
71764;BME280;59602;52.142;5.408;2023-02-19T07:28:49;102263.69;;;9.00;98.36
71764;BME280;59602;52.142;5.408;2023-02-19T07:31:18;102276.44;;;9.00;98.24
71764;BME280;59602;52.142;5.408;2023-02-19T07:33:46;102272.28;;;9.02;98.14
71764;BME280;59602;52.142;5.408;2023-02-19T07:36:15;102276.25;;;9.05;98.35
71764;BME280;59602;52.142;5.408;2023-02-19T07:38:43;102289.47;;;9.06;98.04
71764;BME280;59602;52.142;5.408;2023-02-19T07:41:10;102284.03;;;9.06;98.19
71764;BME280;59602;52.142;5.408;2023-02-19T07:43:39;102281.31;;;9.06;98.28
71764;BME280;59602;52.142;5.408;2023-02-19T07:46:09;102283.72;;;9.08;98.28
71764;BME280;59602;52.142;5.408;2023-02-19T07:48:37;102281.47;;;9.10;98.00
71764;BME280;59602;52.142;5.408;2023-02-19T07:51:06;102288.81;;;9.09;97.75
71764;BME280;59602;52.142;5.408;2023-02-19T07:53:34;102292.78;;;9.12;98.08
71764;BME280;59602;52.142;5.408;2023-02-19T07:56:03;102300.13;;;9.11;98.22
71764;BME280;59602;52.142;5.408;2023-02-19T07:58:30;102302.06;;;9.11;97.92
71764;BME280;59602;52.142;5.408;2023-02-19T08:01:06;102310.97;;;9.11;97.79
71764;BME280;59602;52.142;5.408;2023-02-19T08:03:32;102314.47;;;9.12;97.72
71764;BME280;59602;52.142;5.408;2023-02-19T08:05:59;102307.47;;;9.11;97.79
71764;BME280;59602;52.142;5.408;2023-02-19T08:08:26;102316.41;;;9.11;97.88
71764;BME280;59602;52.142;5.408;2023-02-19T08:10:52;102310.97;;;9.11;97.99
71764;BME280;59602;52.142;5.408;2023-02-19T08:13:38;102318.78;;;9.13;97.81
71764;BME280;59602;52.142;5.408;2023-02-19T08:18:47;102321.94;;;9.15;97.74
71764;BME280;59602;52.142;5.408;2023-02-19T08:21:14;102327.84;;;9.17;97.85
71764;BME280;59602;52.142;5.408;2023-02-19T08:23:43;102338.06;;;9.20;97.74
71764;BME280;59602;52.142;5.408;2023-02-19T08:26:12;102347.31;;;9.19;97.86
71764;BME280;59602;52.142;5.408;2023-02-19T08:28:38;102347.97;;;9.16;98.05
71764;BME280;59602;52.142;5.408;2023-02-19T08:31:06;102351.81;;;9.15;98.12
71764;BME280;59602;52.142;5.408;2023-02-19T08:33:34;102360.41;;;9.17;98.60
71764;BME280;59602;52.142;5.408;2023-02-19T08:36:03;102363.78;;;9.14;98.51
71764;BME280;59602;52.142;5.408;2023-02-19T08:38:31;102361.41;;;9.12;98.42
71764;BME280;59602;52.142;5.408;2023-02-19T08:41:04;102361.75;;;9.11;98.37
71764;BME280;59602;52.142;5.408;2023-02-19T08:43:31;102364.56;;;9.14;98.69
71764;BME280;59602;52.142;5.408;2023-02-19T08:45:58;102372.50;;;9.20;98.87
71764;BME280;59602;52.142;5.408;2023-02-19T08:48:25;102372.66;;;9.23;98.91
71764;BME280;59602;52.142;5.408;2023-02-19T08:51:00;102378.09;;;9.23;98.28
71764;BME280;59602;52.142;5.408;2023-02-19T08:53:35;102374.13;;;9.21;98.18
71764;BME280;59602;52.142;5.408;2023-02-19T08:56:04;102378.28;;;9.18;98.06
71764;BME280;59602;52.142;5.408;2023-02-19T08:58:31;102370.94;;;9.19;98.23
71764;BME280;59602;52.142;5.408;2023-02-19T09:00:58;102374.44;;;9.19;98.03
71764;BME280;59602;52.142;5.408;2023-02-19T09:03:25;102379.53;;;9.21;98.21
71764;BME280;59602;52.142;5.408;2023-02-19T09:05:53;102379.22;;;9.22;97.72
71764;BME280;59602;52.142;5.408;2023-02-19T09:08:19;102367.38;;;9.27;97.88
71764;BME280;59602;52.142;5.408;2023-02-19T09:10:56;102371.59;;;9.37;97.78
71764;BME280;59602;52.142;5.408;2023-02-19T09:13:23;102377.47;;;9.39;97.62
71764;BME280;59602;52.142;5.408;2023-02-19T09:15:49;102390.72;;;9.40;97.74
71764;BME280;59602;52.142;5.408;2023-02-19T09:18:16;102400.13;;;9.43;97.63
71764;BME280;59602;52.142;5.408;2023-02-19T09:20:44;102397.88;;;9.45;97.43
71764;BME280;59602;52.142;5.408;2023-02-19T09:23:10;102393.91;;;9.42;97.26
71764;BME280;59602;52.142;5.408;2023-02-19T09:25:37;102400.44;;;9.41;97.33
71764;BME280;59602;52.142;5.408;2023-02-19T09:28:03;102403.16;;;9.41;97.06
71764;BME280;59602;52.142;5.408;2023-02-19T09:30:30;102410.78;;;9.48;97.41
71764;BME280;59602;52.142;5.408;2023-02-19T09:32:57;102425.94;;;9.49;97.19
71764;BME280;59602;52.142;5.408;2023-02-19T09:35:23;102434.53;;;9.51;97.24
71764;BME280;59602;52.142;5.408;2023-02-19T09:37:50;102434.22;;;9.52;96.96
71764;BME280;59602;52.142;5.408;2023-02-19T09:40:16;102444.59;;;9.50;97.12
71764;BME280;59602;52.142;5.408;2023-02-19T09:42:48;102454.34;;;9.51;97.33
71764;BME280;59602;52.142;5.408;2023-02-19T09:45:22;102458.97;;;9.51;97.09
71764;BME280;59602;52.142;5.408;2023-02-19T09:47:52;102462.16;;;9.53;96.98
71764;BME280;59602;52.142;5.408;2023-02-19T09:50:24;102470.19;;;9.49;97.07
71764;BME280;59602;52.142;5.408;2023-02-19T09:52:57;102477.06;;;9.47;96.75
71764;BME280;59602;52.142;5.408;2023-02-19T09:58:07;102482.69;;;9.42;96.74
71764;BME280;59602;52.142;5.408;2023-02-19T10:00:39;102488.09;;;9.42;96.23
71764;BME280;59602;52.142;5.408;2023-02-19T10:03:13;102484.91;;;9.40;96.39
71764;BME280;59602;52.142;5.408;2023-02-19T10:05:40;102495.78;;;9.40;96.15
71764;BME280;59602;52.142;5.408;2023-02-19T10:08:12;102510.41;;;9.26;95.41
71764;BME280;59602;52.142;5.408;2023-02-19T10:10:42;102520.88;;;9.16;94.79
71764;BME280;59602;52.142;5.408;2023-02-19T10:13:18;102517.81;;;9.17;95.16
71764;BME280;59602;52.142;5.408;2023-02-19T10:15:50;102526.75;;;9.18;95.06
71764;BME280;59602;52.142;5.408;2023-02-19T10:18:21;102527.88;;;9.17;95.13
71764;BME280;59602;52.142;5.408;2023-02-19T10:20:51;102531.84;;;9.19;94.97
71764;BME280;59602;52.142;5.408;2023-02-19T10:23:20;102536.16;;;9.20;95.09
71764;BME280;59602;52.142;5.408;2023-02-19T10:25:52;102538.72;;;9.17;95.22
71764;BME280;59602;52.142;5.408;2023-02-19T10:28:22;102552.59;;;9.15;95.38
71764;BME280;59602;52.142;5.408;2023-02-19T10:30:53;102550.88;;;9.10;95.14
71764;BME280;59602;52.142;5.408;2023-02-19T10:33:21;102564.44;;;9.10;95.14
71764;BME280;59602;52.142;5.408;2023-02-19T10:38:23;102559.53;;;9.04;94.86
71764;BME280;59602;52.142;5.408;2023-02-19T10:43:27;102562.88;;;9.09;94.73
71764;BME280;59602;52.142;5.408;2023-02-19T10:46:06;102560.63;;;9.11;94.81
71764;BME280;59602;52.142;5.408;2023-02-19T10:48:37;102560.28;;;9.13;94.93
71764;BME280;59602;52.142;5.408;2023-02-19T10:51:08;102566.34;;;9.19;95.08
71764;BME280;59602;52.142;5.408;2023-02-19T10:53:44;102571.09;;;9.22;95.25
71764;BME280;59602;52.142;5.408;2023-02-19T10:56:15;102562.16;;;9.21;94.74
71764;BME280;59602;52.142;5.408;2023-02-19T10:58:43;102567.47;;;9.18;94.38
71764;BME280;59602;52.142;5.408;2023-02-19T11:01:20;102562.81;;;9.18;94.24
71764;BME280;59602;52.142;5.408;2023-02-19T11:03:49;102555.00;;;9.17;93.79
71764;BME280;59602;52.142;5.408;2023-02-19T11:06:19;102544.16;;;9.17;93.78
71764;BME280;59602;52.142;5.408;2023-02-19T11:08:51;102541.28;;;9.13;93.86
71764;BME280;59602;52.142;5.408;2023-02-19T11:11:26;102557.25;;;9.14;93.68
71764;BME280;59602;52.142;5.408;2023-02-19T11:13:56;102561.09;;;9.13;93.62
71764;BME280;59602;52.142;5.408;2023-02-19T11:16:36;102568.41;;;9.13;93.62
71764;BME280;59602;52.142;5.408;2023-02-19T11:19:05;102573.06;;;9.12;94.08
71764;BME280;59602;52.142;5.408;2023-02-19T11:21:32;102576.56;;;9.13;93.90
71764;BME280;59602;52.142;5.408;2023-02-19T11:23:59;102566.69;;;9.08;93.56
71764;BME280;59602;52.142;5.408;2023-02-19T11:26:31;102573.44;;;9.02;93.59
71764;BME280;59602;52.142;5.408;2023-02-19T11:29:16;102579.66;;;9.03;93.70
71764;BME280;59602;52.142;5.408;2023-02-19T11:31:45;102575.97;;;9.07;93.47
71764;BME280;59602;52.142;5.408;2023-02-19T11:36:40;102575.81;;;9.04;93.34
71764;BME280;59602;52.142;5.408;2023-02-19T11:46:56;102591.47;;;9.07;93.52
71764;BME280;59602;52.142;5.408;2023-02-19T11:49:43;102587.13;;;9.06;93.29
71764;BME280;59602;52.142;5.408;2023-02-19T11:57:44;102568.47;;;9.04;93.08
71764;BME280;59602;52.142;5.408;2023-02-19T12:00:26;102579.00;;;9.06;93.32
71764;BME280;59602;52.142;5.408;2023-02-19T12:03:19;102575.69;;;9.00;93.24
71764;BME280;59602;52.142;5.408;2023-02-19T12:08:54;102578.78;;;8.72;92.40
71764;BME280;59602;52.142;5.408;2023-02-19T12:11:49;102593.16;;;8.73;92.82
71764;BME280;59602;52.142;5.408;2023-02-19T12:17:32;102597.00;;;8.55;91.91
71764;BME280;59602;52.142;5.408;2023-02-19T12:22:43;102601.66;;;8.54;92.20
71764;BME280;59602;52.142;5.408;2023-02-19T12:28:04;102602.13;;;8.47;92.02
71764;BME280;59602;52.142;5.408;2023-02-19T12:30:54;102590.31;;;8.52;92.37
71764;BME280;59602;52.142;5.408;2023-02-19T12:41:45;102619.84;;;8.54;92.39
71764;BME280;59602;52.142;5.408;2023-02-19T12:44:21;102609.00;;;8.45;91.67
71764;BME280;59602;52.142;5.408;2023-02-19T12:46:57;102618.56;;;8.42;91.83
71764;BME280;59602;52.142;5.408;2023-02-19T12:49:32;102612.16;;;8.38;92.29
71764;BME280;59602;52.142;5.408;2023-02-19T12:52:06;102628.13;;;8.40;92.16
71764;BME280;59602;52.142;5.408;2023-02-19T12:54:40;102631.63;;;8.40;92.62
71764;BME280;59602;52.142;5.408;2023-02-19T12:57:17;102631.63;;;8.40;92.33
71764;BME280;59602;52.142;5.408;2023-02-19T12:59:57;102638.47;;;8.38;92.67
71764;BME280;59602;52.142;5.408;2023-02-19T13:05:14;102651.22;;;8.37;91.98
71764;BME280;59602;52.142;5.408;2023-02-19T13:10:21;102654.91;;;8.41;92.24
71764;BME280;59602;52.142;5.408;2023-02-19T13:12:53;102650.31;;;8.42;92.14
71764;BME280;59602;52.142;5.408;2023-02-19T13:15:33;102660.19;;;8.46;92.15
71764;BME280;59602;52.142;5.408;2023-02-19T13:18:04;102675.16;;;8.44;92.10
71764;BME280;59602;52.142;5.408;2023-02-19T13:20:40;102681.69;;;8.43;91.97
71764;BME280;59602;52.142;5.408;2023-02-19T13:23:18;102678.97;;;8.34;91.52
71764;BME280;59602;52.142;5.408;2023-02-19T13:26:12;102686.59;;;8.23;91.42
71764;BME280;59602;52.142;5.408;2023-02-19T13:31:38;102690.44;;;8.22;91.66
71764;BME280;59602;52.142;5.408;2023-02-19T13:36:38;102690.75;;;8.29;90.85
71764;BME280;59602;52.142;5.408;2023-02-19T13:39:05;102695.06;;;8.30;91.00
71764;BME280;59602;52.142;5.408;2023-02-19T13:41:38;102687.72;;;8.31;90.88
71764;BME280;59602;52.142;5.408;2023-02-19T13:44:15;102695.88;;;8.31;90.38
71764;BME280;59602;52.142;5.408;2023-02-19T13:46:46;102705.56;;;8.32;90.72
71764;BME280;59602;52.142;5.408;2023-02-19T13:52:00;102711.47;;;8.34;90.32
71764;BME280;59602;52.142;5.408;2023-02-19T13:54:28;102708.47;;;8.36;89.72
71764;BME280;59602;52.142;5.408;2023-02-19T13:59:49;102707.53;;;8.40;89.27
71764;BME280;59602;52.142;5.408;2023-02-19T14:04:54;102706.59;;;8.45;88.61
71764;BME280;59602;52.142;5.408;2023-02-19T14:07:34;102708.34;;;8.49;89.17
71764;BME280;59602;52.142;5.408;2023-02-19T14:10:03;102715.50;;;8.54;88.54
71764;BME280;59602;52.142;5.408;2023-02-19T14:12:32;102723.94;;;8.52;88.43
71764;BME280;59602;52.142;5.408;2023-02-19T14:18:02;102710.88;;;8.63;88.26
71764;BME280;59602;52.142;5.408;2023-02-19T14:20:40;102706.72;;;8.66;88.16
71764;BME280;59602;52.142;5.408;2023-02-19T14:23:14;102702.56;;;8.68;87.63
71764;BME280;59602;52.142;5.408;2023-02-19T14:28:13;102700.03;;;8.72;87.45
71764;BME280;59602;52.142;5.408;2023-02-19T14:30:59;102698.59;;;8.75;86.09
71764;BME280;59602;52.142;5.408;2023-02-19T14:33:36;102690.31;;;8.71;85.71
71764;BME280;59602;52.142;5.408;2023-02-19T14:36:19;102680.09;;;8.77;85.44
71764;BME280;59602;52.142;5.408;2023-02-19T14:38:54;102683.28;;;8.79;85.55
71764;BME280;59602;52.142;5.408;2023-02-19T14:41:22;102678.16;;;8.77;85.01